Time;durP1;ratioP1;P1;durP2;ratioP2;P2;SDS_P1;SDS_P2;PMS_P1;PMS_P2;Temp;Humidity;BMP_temperature;BMP_pressure;BME280_temperature;BME280_humidity;BME280_pressure;Samples;Min_cycle;Max_cycle;Signal;HPM_P1;HPM_P2
2022/09/16 00:00:09;;;;;;;3.35;1.88;;;;;;;;;;4992745;28;20375;-78
2022/09/16 00:02:34;;;;;;;3.22;1.98;;;;;;;;;;4992397;28;20030;-76
2022/09/16 00:05:00;;;;;;;3.63;1.80;;;;;;;;;;4992415;28;20041;-77
2022/09/16 00:07:26;;;;;;;6.82;2.15;;;;;;;;;;4990865;28;20026;-77
2022/09/16 00:09:51;;;;;;;4.65;1.80;;;;;;;;;;5007461;28;20026;-77
2022/09/16 00:12:17;;;;;;;3.08;2.08;;;;;;;;;;5007569;28;20030;-77
2022/09/16 00:14:42;;;;;;;4.70;2.03;;;;;;;;;;4992643;28;20030;-77
2022/09/16 00:17:08;;;;;;;2.05;1.70;;;;;;;;;;5007584;28;20053;-77
2022/09/16 00:19:33;;;;;;;3.42;2.10;;;;;;;;;;4992128;28;20026;-77
2022/09/16 00:21:59;;;;;;;3.63;1.85;;;;;;;;;;4990711;28;20344;-77
2022/09/16 00:24:24;;;;;;;5.88;1.83;;;;;;;;;;4997159;28;20039;-77
2022/09/16 00:26:50;;;;;;;3.58;1.95;;;;;;;;;;5011742;28;20034;-77
2022/09/16 00:29:15;;;;;;;3.42;1.73;;;;;;;;;;5026902;28;20025;-77
2022/09/16 00:31:41;;;;;;;6.78;1.80;;;;;;;;;;5011801;28;20347;-78
2022/09/16 00:34:06;;;;;;;3.50;1.73;;;;;;;;;;5013534;28;20474;-78
2022/09/16 00:36:32;;;;;;;5.18;2.20;;;;;;;;;;5030370;28;20026;-78
2022/09/16 00:38:57;;;;;;;3.35;1.90;;;;;;;;;;5015235;28;20544;-77
2022/09/16 00:41:25;;;;;;;5.72;1.88;;;;;;;;;;5014976;28;20063;-77
2022/09/16 00:44:00;;;;;;;5.57;1.70;;;;;;;;;;5022381;28;20036;-78
2022/09/16 00:46:34;;;;;;;2.85;1.88;;;;;;;;;;5039937;28;20033;-78
2022/09/16 00:49:04;;;;;;;3.47;1.77;;;;;;;;;;5028740;28;20033;-78
2022/09/16 00:51:31;;;;;;;3.70;1.88;;;;;;;;;;5011165;28;20025;-78
2022/09/16 00:54:02;;;;;;;3.60;1.75;;;;;;;;;;5009636;28;20478;-78
2022/09/16 00:56:31;;;;;;;1.77;1.60;;;;;;;;;;5011052;28;20033;-78
2022/09/16 00:59:07;;;;;;;4.00;1.85;;;;;;;;;;5009442;28;20108;-78
2022/09/16 01:01:32;;;;;;;3.97;1.70;;;;;;;;;;5010910;28;20029;-78
2022/09/16 01:04:03;;;;;;;2.53;1.80;;;;;;;;;;5011082;28;20478;-78
2022/09/16 01:06:31;;;;;;;5.93;1.88;;;;;;;;;;5010845;28;20136;-78
2022/09/16 01:08:57;;;;;;;2.92;1.80;;;;;;;;;;5010925;28;20022;-78
2022/09/16 01:11:23;;;;;;;5.07;1.58;;;;;;;;;;5011127;28;20053;-78
2022/09/16 01:13:51;;;;;;;3.75;1.45;;;;;;;;;;5011011;28;20034;-77
2022/09/16 01:16:29;;;;;;;8.55;1.98;;;;;;;;;;5010826;28;20033;-78
2022/09/16 01:19:12;;;;;;;3.40;2.10;;;;;;;;;;5009716;28;20153;-78
2022/09/16 01:21:47;;;;;;;5.00;1.75;;;;;;;;;;5010605;28;20026;-77
2022/09/16 01:24:45;;;;;;;2.63;1.60;;;;;;;;;;5005796;28;20041;-77
2022/09/16 01:27:47;;;;;;;5.57;2.10;;;;;;;;;;4947856;28;20088;-78
2022/09/16 01:30:16;;;;;;;;;;;;;;;;;;4991605;28;20093;-78
2022/09/16 01:33:03;;;;;;;4.32;1.92;;;;;;;;;;5005503;28;19946;-79
2022/09/16 01:35:51;;;;;;;3.72;1.95;;;;;;;;;;4990892;28;20460;-76
2022/09/16 01:38:32;;;;;;;3.50;1.80;;;;;;;;;;4990531;28;20093;-78
2022/09/16 01:41:19;;;;;;;2.92;1.88;;;;;;;;;;5006007;28;20116;-77
2022/09/16 01:43:49;;;;;;;3.08;1.80;;;;;;;;;;4990643;28;20023;-77
2022/09/16 01:46:22;;;;;;;4.63;1.60;;;;;;;;;;4995324;28;20034;-77
2022/09/16 01:49:19;;;;;;;2.75;2.03;;;;;;;;;;5010058;28;20386;-79
2022/09/16 01:51:57;;;;;;;2.53;1.50;;;;;;;;;;4994631;28;20037;-78
2022/09/16 01:54:37;;;;;;;4.82;1.90;;;;;;;;;;4994504;28;20030;-76
2022/09/16 01:57:14;;;;;;;3.95;1.50;;;;;;;;;;5009783;28;20030;-77
2022/09/16 01:59:49;;;;;;;3.72;1.60;;;;;;;;;;4994538;28;20033;-77
2022/09/16 02:02:14;;;;;;;2.85;1.60;;;;;;;;;;5010007;28;20030;-77
2022/09/16 02:04:45;;;;;;;5.45;2.17;;;;;;;;;;4993321;28;20037;-77
2022/09/16 02:07:14;;;;;;;4.43;2.20;;;;;;;;;;4995062;28;20026;-77
2022/09/16 02:09:44;;;;;;;5.38;1.83;;;;;;;;;;4995387;28;20030;-77
2022/09/16 02:12:16;;;;;;;3.38;1.80;;;;;;;;;;5011242;28;20030;-77
2022/09/16 02:14:44;;;;;;;3.53;2.00;;;;;;;;;;5010578;28;20114;-77
2022/09/16 02:17:14;;;;;;;4.20;2.10;;;;;;;;;;5010468;28;20041;-77
2022/09/16 02:20:07;;;;;;;2.75;2.10;;;;;;;;;;4993574;28;20034;-78
2022/09/16 02:22:40;;;;;;;3.88;2.20;;;;;;;;;;4992588;28;20057;-77
2022/09/16 02:25:07;;;;;;;3.00;2.42;;;;;;;;;;5021484;28;20030;-77
2022/09/16 02:27:36;;;;;;;3.78;2.05;;;;;;;;;;4996499;28;20030;-77
2022/09/16 02:30:08;;;;;;;2.50;2.10;;;;;;;;;;5012652;28;20056;-77
2022/09/16 02:32:38;;;;;;;3.72;2.20;;;;;;;;;;5019469;28;20128;-78
2022/09/16 02:35:06;;;;;;;2.55;2.20;;;;;;;;;;5015815;28;20114;-78
2022/09/16 02:37:46;;;;;;;3.20;2.20;;;;;;;;;;5033478;28;20095;-77
2022/09/16 02:40:18;;;;;;;3.70;2.25;;;;;;;;;;5015500;28;20120;-78
2022/09/16 02:42:44;;;;;;;4.75;2.35;;;;;;;;;;5033329;28;20021;-78
2022/09/16 02:45:10;;;;;;;6.07;2.70;;;;;;;;;;5015768;28;20551;-77
2022/09/16 02:48:06;;;;;;;5.32;2.35;;;;;;;;;;5033905;28;20017;-77
2022/09/16 02:50:49;;;;;;;5.97;2.30;;;;;;;;;;5035073;28;20098;-77
2022/09/16 02:53:38;;;;;;;2.60;2.17;;;;;;;;;;5033329;28;20048;-77
2022/09/16 02:56:13;;;;;;;4.07;2.22;;;;;;;;;;5017373;28;20037;-77
2022/09/16 02:58:39;;;;;;;6.03;2.13;;;;;;;;;;5033105;28;20033;-77
2022/09/16 03:01:05;;;;;;;8.52;2.63;;;;;;;;;;5015276;28;20026;-76
2022/09/16 03:03:31;;;;;;;4.60;2.38;;;;;;;;;;5031748;28;20710;-77
2022/09/16 03:06:02;;;;;;;4.30;2.30;;;;;;;;;;5015346;28;20056;-77
2022/09/16 03:08:28;;;;;;;2.63;2.28;;;;;;;;;;5032914;28;20024;-77
2022/09/16 03:10:57;;;;;;;7.85;2.60;;;;;;;;;;5032700;28;20030;-77
2022/09/16 03:13:44;;;;;;;2.13;1.90;;;;;;;;;;5015312;28;20075;-77
2022/09/16 03:16:28;;;;;;;4.25;2.67;;;;;;;;;;4998970;28;20557;-78
2022/09/16 03:19:02;;;;;;;4.95;2.45;;;;;;;;;;5015220;28;20048;-78
2022/09/16 03:21:35;;;;;;;5.10;2.30;;;;;;;;;;5031608;28;20397;-78
2022/09/16 03:24:04;;;;;;;5.07;2.72;;;;;;;;;;5029502;28;20041;-77
2022/09/16 03:26:57;;;;;;;4.20;2.47;;;;;;;;;;5013282;28;20026;-77
2022/09/16 03:29:47;;;;;;;5.18;2.50;;;;;;;;;;5012526;28;20043;-77
2022/09/16 03:32:36;;;;;;;6.82;2.63;;;;;;;;;;4995950;28;20064;-77
2022/09/16 03:35:22;;;;;;;6.25;2.30;;;;;;;;;;5013182;28;20025;-78
2022/09/16 03:37:48;;;;;;;5.00;2.58;;;;;;;;;;5012492;28;20026;-78
2022/09/16 03:40:17;;;;;;;4.47;2.90;;;;;;;;;;5011001;28;20025;-78
2022/09/16 03:42:43;;;;;;;3.53;2.55;;;;;;;;;;5012204;28;20720;-78
2022/09/16 03:45:13;;;;;;;5.20;2.88;;;;;;;;;;5012578;28;20036;-78
2022/09/16 03:47:39;;;;;;;6.40;2.50;;;;;;;;;;5010980;28;20021;-78
2022/09/16 03:50:05;;;;;;;5.15;2.40;;;;;;;;;;4994778;28;20348;-78
2022/09/16 03:52:30;;;;;;;4.55;3.20;;;;;;;;;;4994798;28;20128;-78
2022/09/16 03:54:56;;;;;;;4.38;2.70;;;;;;;;;;5011580;28;20084;-78
2022/09/16 03:57:21;;;;;;;4.07;2.50;;;;;;;;;;5012200;28;20022;-78
2022/09/16 03:59:47;;;;;;;5.57;3.63;;;;;;;;;;5010472;28;20022;-77
2022/09/16 04:02:12;;;;;;;4.78;2.60;;;;;;;;;;5011865;28;20072;-78
2022/09/16 04:04:38;;;;;;;3.30;2.33;;;;;;;;;;5012778;28;20061;-78
2022/09/16 04:07:03;;;;;;;12.25;4.15;;;;;;;;;;4995201;28;20108;-78
2022/09/16 04:09:29;;;;;;;6.45;2.72;;;;;;;;;;5011331;28;20060;-77
2022/09/16 04:11:54;;;;;;;3.92;2.45;;;;;;;;;;5011975;28;20030;-78
2022/09/16 04:14:20;;;;;;;4.53;2.85;;;;;;;;;;5011091;28;20137;-77
2022/09/16 04:16:45;;;;;;;4.35;2.70;;;;;;;;;;5010357;28;20570;-77
2022/09/16 04:19:12;;;;;;;6.57;2.80;;;;;;;;;;5011776;28;20028;-77
2022/09/16 04:21:39;;;;;;;37.53;21.80;;;;;;;;;;5009776;28;20032;-77
2022/09/16 04:24:05;;;;;;;8.23;5.18;;;;;;;;;;5015132;28;20025;-77
2022/09/16 04:26:30;;;;;;;4.05;3.03;;;;;;;;;;5013540;28;20120;-77
2022/09/16 04:28:56;;;;;;;5.10;2.67;;;;;;;;;;5013438;28;20029;-77
2022/09/16 04:31:21;;;;;;;7.80;2.95;;;;;;;;;;5013374;28;20029;-78
2022/09/16 04:33:47;;;;;;;7.00;3.13;;;;;;;;;;5013530;28;20136;-79
2022/09/16 04:36:15;;;;;;;5.63;3.17;;;;;;;;;;5031709;28;20029;-78
2022/09/16 04:38:42;;;;;;;8.18;3.65;;;;;;;;;;5013602;28;20022;-78
2022/09/16 04:41:14;;;;;;;4.97;2.88;;;;;;;;;;5033970;28;20025;-79
2022/09/16 04:43:39;;;;;;;5.50;3.50;;;;;;;;;;5015408;28;20029;-80
2022/09/16 04:46:06;;;;;;;5.65;3.58;;;;;;;;;;5034591;28;20112;-78
2022/09/16 04:48:32;;;;;;;4.22;3.58;;;;;;;;;;5018883;28;20080;-80
2022/09/16 04:51:07;;;;;;;8.57;3.00;;;;;;;;;;5001482;28;20025;-79
2022/09/16 04:53:33;;;;;;;5.82;2.97;;;;;;;;;;5034604;28;20084;-77
2022/09/16 04:56:19;;;;;;;3.97;3.05;;;;;;;;;;5013678;28;20025;-79
2022/09/16 04:58:47;;;;;;;7.13;3.13;;;;;;;;;;5029391;28;20049;-79
2022/09/16 05:01:15;;;;;;;5.40;2.42;;;;;;;;;;5013500;28;20067;-75
2022/09/16 05:03:43;;;;;;;8.27;4.05;;;;;;;;;;5009277;28;20151;-78
2022/09/16 05:06:12;;;;;;;6.07;3.58;;;;;;;;;;5007759;28;20513;-76
2022/09/16 05:08:37;;;;;;;6.43;3.53;;;;;;;;;;5022448;28;20043;-77
2022/09/16 05:11:08;;;;;;;6.40;3.45;;;;;;;;;;5025816;28;20485;-79
2022/09/16 05:13:33;;;;;;;4.55;3.25;;;;;;;;;;5013013;28;20025;-78
2022/09/16 05:16:08;;;;;;;7.35;3.30;;;;;;;;;;5027499;28;20028;-74
2022/09/16 05:18:37;;;;;;;7.85;3.55;;;;;;;;;;5004770;28;20029;-78
2022/09/16 05:21:05;;;;;;;7.85;3.42;;;;;;;;;;5026818;28;20076;-76
2022/09/16 05:23:32;;;;;;;7.95;3.83;;;;;;;;;;5033472;28;20018;-78
2022/09/16 05:26:15;;;;;;;5.57;3.45;;;;;;;;;;5026493;28;20111;-75
2022/09/16 05:28:42;;;;;;;5.75;3.05;;;;;;;;;;5009186;28;20486;-76
2022/09/16 05:31:10;;;;;;;5.90;3.15;;;;;;;;;;5020099;28;20029;-75
2022/09/16 05:33:36;;;;;;;6.43;3.13;;;;;;;;;;5024048;28;20678;-76
2022/09/16 05:36:11;;;;;;;7.15;3.83;;;;;;;;;;5008993;28;20025;-75
2022/09/16 05:38:37;;;;;;;8.27;3.45;;;;;;;;;;5015996;28;20036;-73
2022/09/16 05:41:05;;;;;;;7.47;3.33;;;;;;;;;;5016090;28;20110;-73
2022/09/16 05:43:31;;;;;;;6.18;3.70;;;;;;;;;;5010798;28;20558;-74
2022/09/16 05:46:02;;;;;;;10.30;4.15;;;;;;;;;;5005187;28;20051;-76
2022/09/16 05:48:27;;;;;;;4.72;3.78;;;;;;;;;;5024390;28;20255;-74
2022/09/16 05:51:03;;;;;;;7.90;3.70;;;;;;;;;;5007655;28;20330;-74
2022/09/16 05:53:30;;;;;;;7.35;3.70;;;;;;;;;;5020107;28;20065;-73
2022/09/16 05:55:58;;;;;;;9.65;4.20;;;;;;;;;;5007008;28;20033;-74
2022/09/16 05:58:26;;;;;;;7.35;3.45;;;;;;;;;;5026755;28;20127;-73
2022/09/16 06:00:57;;;;;;;5.65;3.72;;;;;;;;;;5025680;28;20025;-76
2022/09/16 06:03:26;;;;;;;7.40;3.88;;;;;;;;;;5029499;28;20157;-75
2022/09/16 06:05:52;;;;;;;7.32;4.00;;;;;;;;;;5019290;28;20036;-76
2022/09/16 06:08:19;;;;;;;5.28;4.30;;;;;;;;;;5018258;28;20041;-75
2022/09/16 06:10:44;;;;;;;8.07;4.10;;;;;;;;;;5024142;28;20033;-74
2022/09/16 06:13:10;;;;;;;6.80;3.83;;;;;;;;;;5035424;28;20033;-74
2022/09/16 06:15:37;;;;;;;7.68;4.10;;;;;;;;;;5020037;28;20091;-77
2022/09/16 06:18:02;;;;;;;11.73;4.30;;;;;;;;;;5023134;28;20167;-75
2022/09/16 06:20:28;;;;;;;7.40;4.65;;;;;;;;;;5030282;28;20112;-75
2022/09/16 06:22:53;;;;;;;8.40;4.07;;;;;;;;;;5027646;28;20021;-77
2022/09/16 06:25:19;;;;;;;6.32;3.85;;;;;;;;;;5016844;28;20026;-75
2022/09/16 06:27:44;;;;;;;6.65;4.28;;;;;;;;;;5030276;28;20024;-77
2022/09/16 06:30:11;;;;;;;5.25;3.42;;;;;;;;;;5028192;28;20032;-77
2022/09/16 06:36:24;;;;;;;6.57;4.03;;;;;;;;;;4993941;28;20041;-78
2022/09/16 06:38:50;;;;;;;8.88;4.43;;;;;;;;;;5007770;28;20064;-75
2022/09/16 06:41:16;;;;;;;7.70;3.75;;;;;;;;;;5006850;28;20633;-76
2022/09/16 06:43:43;;;;;;;9.35;3.88;;;;;;;;;;5026502;28;20113;-74
2022/09/16 06:46:16;;;;;;;7.57;3.00;;;;;;;;;;5009102;28;20481;-74
2022/09/16 06:48:44;;;;;;;9.93;3.55;;;;;;;;;;5025208;28;20480;-75
2022/09/16 06:51:11;;;;;;;9.43;4.63;;;;;;;;;;5012525;28;20037;-76
2022/09/16 06:53:38;;;;;;;10.00;5.90;;;;;;;;;;5011245;28;20060;-75
2022/09/16 06:56:07;;;;;;;8.48;3.70;;;;;;;;;;5030332;28;20025;-75
2022/09/16 06:58:35;;;;;;;4.88;3.38;;;;;;;;;;5002082;28;20030;-75
2022/09/16 07:01:07;;;;;;;6.40;3.35;;;;;;;;;;5026069;28;20025;-76
2022/09/16 07:03:37;;;;;;;10.20;4.40;;;;;;;;;;5023391;28;20033;-77
2022/09/16 07:06:02;;;;;;;10.95;3.83;;;;;;;;;;5011754;28;20033;-75
2022/09/16 07:08:31;;;;;;;6.53;4.07;;;;;;;;;;5017574;28;20041;-76
2022/09/16 07:11:09;;;;;;;5.93;3.40;;;;;;;;;;5026108;28;20049;-78
2022/09/16 07:13:35;;;;;;;9.82;4.10;;;;;;;;;;5027180;28;20063;-73
2022/09/16 07:16:03;;;;;;;7.53;4.32;;;;;;;;;;5014704;28;20045;-75
2022/09/16 07:18:29;;;;;;;7.68;3.97;;;;;;;;;;5042892;28;20132;-74
2022/09/16 07:21:13;;;;;;;5.22;3.38;;;;;;;;;;5032129;28;20054;-74
2022/09/16 07:23:40;;;;;;;8.55;3.47;;;;;;;;;;5012635;28;20022;-74
2022/09/16 07:26:18;;;;;;;10.50;3.53;;;;;;;;;;5006823;28;20033;-75
2022/09/16 07:28:45;;;;;;;11.40;3.55;;;;;;;;;;5026577;28;20052;-73
2022/09/16 07:31:20;;;;;;;8.52;3.88;;;;;;;;;;5027496;28;20025;-74
2022/09/16 07:33:48;;;;;;;9.93;3.15;;;;;;;;;;5030397;28;20053;-74
2022/09/16 07:36:17;;;;;;;9.02;3.28;;;;;;;;;;5019664;28;20037;-75
2022/09/16 07:38:42;;;;;;;3.67;2.80;;;;;;;;;;5010299;28;20033;-76
2022/09/16 07:41:18;;;;;;;7.13;3.60;;;;;;;;;;5030878;28;20677;-75
2022/09/16 07:43:44;;;;;;;5.10;3.15;;;;;;;;;;5012051;28;20082;-74
2022/09/16 07:46:12;;;;;;;13.05;4.03;;;;;;;;;;5018159;28;20044;-75
2022/09/16 07:48:38;;;;;;;8.88;4.20;;;;;;;;;;5025113;28;20040;-74
2022/09/16 07:51:07;;;;;;;4.90;3.03;;;;;;;;;;5028858;28;20026;-77
2022/09/16 07:53:34;;;;;;;3.00;2.35;;;;;;;;;;5026763;28;20025;-76
2022/09/16 07:56:03;;;;;;;4.05;2.80;;;;;;;;;;5007856;28;20053;-78
2022/09/16 07:58:29;;;;;;;3.97;2.65;;;;;;;;;;5001771;28;20040;-77
2022/09/16 08:00:54;;;;;;;7.10;3.33;;;;;;;;;;5016315;28;20029;-75
2022/09/16 08:03:20;;;;;;;4.60;2.72;;;;;;;;;;5024906;28;20029;-77
2022/09/16 08:06:07;;;;;;;4.75;3.50;;;;;;;;;;5024615;28;20036;-75
2022/09/16 08:08:33;;;;;;;3.90;2.40;;;;;;;;;;5022232;28;20090;-76
2022/09/16 08:10:59;;;;;;;6.97;3.05;;;;;;;;;;5032649;28;20033;-75
2022/09/16 08:13:28;;;;;;;3.28;2.35;;;;;;;;;;5030290;28;20052;-76
2022/09/16 08:15:54;;;;;;;5.07;2.88;;;;;;;;;;5024104;28;20048;-76
2022/09/16 08:18:20;;;;;;;5.85;3.28;;;;;;;;;;5020468;28;20044;-76
2022/09/16 08:20:46;;;;;;;7.15;3.25;;;;;;;;;;5003822;28;20203;-75
2022/09/16 08:23:13;;;;;;;7.15;2.80;;;;;;;;;;5021365;28;20152;-76
2022/09/16 08:25:40;;;;;;;17.83;10.88;;;;;;;;;;5003486;28;20037;-76
2022/09/16 08:28:11;;;;;;;6.25;3.42;;;;;;;;;;5017902;28;20025;-76
2022/09/16 08:30:37;;;;;;;9.15;3.13;;;;;;;;;;5017935;28;20044;-76
2022/09/16 08:33:03;;;;;;;9.80;4.30;;;;;;;;;;5026074;28;20069;-75
2022/09/16 08:35:28;;;;;;;8.23;3.85;;;;;;;;;;5027800;28;21338;-75
2022/09/16 08:37:54;;;;;;;4.63;2.92;;;;;;;;;;5020923;28;20033;-76
2022/09/16 08:40:22;;;;;;;4.18;3.00;;;;;;;;;;5022199;28;20029;-77
2022/09/16 08:42:57;;;;;;;6.90;3.45;;;;;;;;;;5023949;28;20824;-76
2022/09/16 08:45:41;;;;;;;6.47;3.22;;;;;;;;;;5010101;28;20028;-76
2022/09/16 08:48:34;;;;;;;9.35;4.20;;;;;;;;;;5025397;28;20078;-75
2022/09/16 08:51:01;;;;;;;6.38;3.83;;;;;;;;;;5022499;28;20032;-79
2022/09/16 08:53:50;;;;;;;12.63;4.20;;;;;;;;;;5026545;28;20087;-77
2022/09/16 08:56:20;;;;;;;5.78;4.95;;;;;;;;;;5023707;28;20029;-77
2022/09/16 08:58:52;;;;;;;6.03;3.42;;;;;;;;;;5020478;28;20033;-76
2022/09/16 09:01:23;;;;;;;4.38;3.20;;;;;;;;;;5027131;28;20057;-76
2022/09/16 09:03:49;;;;;;;;;;;;;;;;;;5036580;28;20034;-78
2022/09/16 09:06:33;;;;;;;11.25;5.07;;;;;;;;;;5025772;28;20384;-76
2022/09/16 09:09:11;;;;;;;10.80;5.45;;;;;;;;;;5018048;28;20028;-77
2022/09/16 09:11:50;;;;;;;8.95;5.88;;;;;;;;;;5007823;28;20083;-74
2022/09/16 09:14:36;;;;;;;14.07;6.03;;;;;;;;;;5013790;28;20076;-76
2022/09/16 09:17:04;;;;;;;8.05;5.47;;;;;;;;;;5007343;28;20022;-77
2022/09/16 09:19:48;;;;;;;12.70;5.57;;;;;;;;;;5021287;28;20099;-77
2022/09/16 09:22:55;;;;;;;14.57;9.20;;;;;;;;;;5025462;28;20025;-77
2022/09/16 09:25:26;;;;;;;11.88;5.90;;;;;;;;;;5024622;28;20037;-76
2022/09/16 09:28:00;;;;;;;12.18;6.13;;;;;;;;;;5015929;28;20381;-77
2022/09/16 09:30:27;;;;;;;10.65;5.65;;;;;;;;;;5027591;28;20033;-76
2022/09/16 09:33:08;;;;;;;8.95;7.03;;;;;;;;;;5010167;28;20124;-77
2022/09/16 09:36:07;;;;;;;11.45;6.15;;;;;;;;;;5028110;28;20032;-77
2022/09/16 09:38:49;;;;;;;10.43;6.57;;;;;;;;;;5030110;28;20034;-77
2022/09/16 09:41:29;;;;;;;;;;;;;;;;;;5026115;28;20366;-77
2022/09/16 09:44:03;;;;;;;6.35;3.80;;;;;;;;;;5004548;28;19909;-77
2022/09/16 09:46:37;;;;;;;7.70;4.10;;;;;;;;;;5018832;28;20381;-77
2022/09/16 09:49:20;;;;;;;6.28;3.28;;;;;;;;;;5027243;28;20091;-78
2022/09/16 09:52:09;;;;;;;8.68;5.57;;;;;;;;;;5023449;28;20375;-76
2022/09/16 09:54:36;;;;;;;10.23;3.10;;;;;;;;;;5027904;28;20688;-77
2022/09/16 09:57:56;;;;;;;3.92;3.42;;;;;;;;;;5028387;28;20018;-77
2022/09/16 10:00:23;;;;;;;8.70;4.10;;;;;;;;;;5010991;28;20087;-75
2022/09/16 10:02:49;;;;;;;10.25;5.50;;;;;;;;;;5025271;28;20057;-76
2022/09/16 10:05:21;;;;;;;6.35;3.80;;;;;;;;;;5027253;28;20060;-77
2022/09/16 10:07:50;;;;;;;11.13;5.18;;;;;;;;;;5013267;28;20548;-78
2022/09/16 10:10:20;;;;;;;6.63;4.05;;;;;;;;;;5029135;28;20355;-77
2022/09/16 10:12:47;;;;;;;5.18;3.10;;;;;;;;;;5029947;28;20053;-78
2022/09/16 10:15:26;;;;;;;3.50;3.05;;;;;;;;;;5012834;28;20038;-76
2022/09/16 10:17:52;;;;;;;6.93;3.33;;;;;;;;;;5030504;28;20033;-76
2022/09/16 10:20:33;;;;;;;8.02;3.85;;;;;;;;;;5031576;28;20024;-77
2022/09/16 10:23:01;;;;;;;4.93;3.43;;;;;;;;;;5030856;28;20025;-77
2022/09/16 10:25:28;;;;;;;7.45;3.80;;;;;;;;;;5029532;28;20183;-77
2022/09/16 10:28:00;;;;;;;8.40;3.85;;;;;;;;;;5030071;28;20023;-77
2022/09/16 10:30:33;;;;;;;7.10;3.15;;;;;;;;;;5030219;28;20025;-76
2022/09/16 10:33:03;;;;;;;3.47;2.60;;;;;;;;;;5025608;28;20136;-76
2022/09/16 10:35:32;;;;;;;2.67;2.47;;;;;;;;;;5011888;28;20057;-76
2022/09/16 10:38:11;;;;;;;6.53;3.63;;;;;;;;;;5018049;28;20105;-77
2022/09/16 10:40:37;;;;;;;7.25;3.30;;;;;;;;;;5008938;28;20052;-77
2022/09/16 10:43:05;;;;;;;3.85;2.47;;;;;;;;;;5012332;28;20473;-77
2022/09/16 10:45:43;;;;;;;4.65;2.67;;;;;;;;;;5009062;28;20049;-76
2022/09/16 10:48:17;;;;;;;3.35;3.03;;;;;;;;;;5025924;28;20120;-76
2022/09/16 10:51:02;;;;;;;5.25;3.45;;;;;;;;;;5010759;28;20128;-76
2022/09/16 10:53:39;;;;;;;6.30;2.80;;;;;;;;;;5025050;28;20021;-76
2022/09/16 10:56:14;;;;;;;5.88;3.20;;;;;;;;;;5014654;28;20037;-77
2022/09/16 10:58:40;;;;;;;4.55;3.40;;;;;;;;;;5004273;28;20084;-76
2022/09/16 11:01:05;;;;;;;5.13;2.75;;;;;;;;;;5010989;28;20097;-76
2022/09/16 11:03:40;;;;;;;6.57;2.38;;;;;;;;;;5027553;28;20168;-77
2022/09/16 11:06:21;;;;;;;2.80;2.40;;;;;;;;;;5017922;28;20033;-76
2022/09/16 11:09:13;;;;;;;4.32;2.92;;;;;;;;;;5023667;28;20037;-76
2022/09/16 11:11:53;;;;;;;2.92;2.30;;;;;;;;;;5008087;28;20030;-77
2022/09/16 11:14:47;;;;;;;5.72;2.53;;;;;;;;;;5003849;28;20034;-75
2022/09/16 11:17:21;;;;;;;3.50;1.98;;;;;;;;;;5003847;28;20577;-74
2022/09/16 11:20:28;;;;;;;7.35;3.53;;;;;;;;;;5025381;28;20060;-77
2022/09/16 11:23:06;;;;;;;3.35;2.35;;;;;;;;;;4978445;28;20072;-77
2022/09/16 11:25:55;;;;;;;5.32;3.10;;;;;;;;;;5010350;28;20037;-77
2022/09/16 11:28:52;;;;;;;3.92;1.88;;;;;;;;;;5024037;28;20065;-76
2022/09/16 11:31:55;;;;;;;5.57;2.50;;;;;;;;;;5010441;28;20030;-76
2022/09/16 11:34:38;;;;;;;17.70;4.82;;;;;;;;;;5018090;28;20083;-77
2022/09/16 11:37:30;;;;;;;7.28;2.08;;;;;;;;;;5031125;28;20365;-77
2022/09/16 11:39:56;;;;;;;;;;;;;;;;;;4998760;28;20124;-77
2022/09/16 11:42:55;;;;;;;3.15;1.70;;;;;;;;;;5028819;28;19999;-75
2022/09/16 11:45:51;;;;;;;5.32;1.88;;;;;;;;;;5027856;28;20059;-76
2022/09/16 11:48:39;;;;;;;3.55;1.45;;;;;;;;;;5019637;28;20516;-78
2022/09/16 11:51:18;;;;;;;8.02;2.22;;;;;;;;;;5029478;28;20119;-76
2022/09/16 11:53:50;;;;;;;2.15;1.70;;;;;;;;;;5028029;28;20034;-77
2022/09/16 11:57:21;;;;;;;6.93;1.73;;;;;;;;;;5029609;28;20037;-77
2022/09/16 11:59:49;;;;;;;3.35;1.67;;;;;;;;;;5018243;28;20051;-77
2022/09/16 12:02:35;;;;;;;3.90;1.60;;;;;;;;;;5026969;28;20041;-76
2022/09/16 12:05:38;;;;;;;3.00;1.90;;;;;;;;;;5026086;28;20039;-76
2022/09/16 12:08:21;;;;;;;4.10;1.60;;;;;;;;;;5013231;28;20037;-76
2022/09/16 12:11:11;;;;;;;3.75;1.50;;;;;;;;;;5025429;28;20687;-76
2022/09/16 12:13:39;;;;;;;8.93;2.72;;;;;;;;;;5025207;28;20031;-77
2022/09/16 12:16:08;;;;;;;3.97;2.13;;;;;;;;;;5010321;28;20036;-76
2022/09/16 12:18:57;;;;;;;9.27;2.38;;;;;;;;;;5029031;28;20017;-76
2022/09/16 12:21:30;;;;;;;7.18;2.05;;;;;;;;;;5009923;28;20081;-75
2022/09/16 12:24:11;;;;;;;6.47;2.70;;;;;;;;;;5031040;28;20030;-75
2022/09/16 12:26:42;;;;;;;6.32;1.80;;;;;;;;;;5014425;28;20143;-76
2022/09/16 12:29:40;;;;;;;5.63;2.28;;;;;;;;;;5028431;28;20021;-75
2022/09/16 12:32:18;;;;;;;4.18;1.63;;;;;;;;;;5026465;28;20127;-78
2022/09/16 12:34:52;;;;;;;5.65;2.22;;;;;;;;;;5022988;28;20045;-76
2022/09/16 12:37:47;;;;;;;3.20;1.50;;;;;;;;;;5029165;28;20033;-77
2022/09/16 12:40:33;;;;;;;3.28;2.47;;;;;;;;;;5025217;28;20045;-76
2022/09/16 12:43:17;;;;;;;3.15;1.50;;;;;;;;;;5021782;28;20021;-76
2022/09/16 12:46:14;;;;;;;3.50;1.98;;;;;;;;;;5017637;28;20032;-76
2022/09/16 12:48:45;;;;;;;2.50;2.10;;;;;;;;;;5025193;28;20017;-76
2022/09/16 12:51:30;;;;;;;3.13;1.90;;;;;;;;;;5027277;28;20120;-77
2022/09/16 12:54:32;;;;;;;2.13;1.70;;;;;;;;;;5022099;28;20031;-77
2022/09/16 12:57:19;;;;;;;2.53;1.63;;;;;;;;;;5023717;28;20036;-78
2022/09/16 12:59:57;;;;;;;3.83;1.52;;;;;;;;;;5027051;28;20109;-77
2022/09/16 13:02:28;;;;;;;6.05;1.95;;;;;;;;;;5028301;28;20111;-77
2022/09/16 13:04:57;;;;;;;2.93;2.03;;;;;;;;;;5013008;28;20055;-78
2022/09/16 13:07:34;;;;;;;13.25;5.75;;;;;;;;;;5028396;28;20259;-76
2022/09/16 13:10:19;;;;;;;17.60;5.75;;;;;;;;;;5031767;28;20079;-76
2022/09/16 13:12:57;;;;;;;6.45;2.90;;;;;;;;;;5038261;28;20080;-76
2022/09/16 13:15:30;;;;;;;13.82;6.82;;;;;;;;;;5038584;28;20036;-76
2022/09/16 13:18:12;;;;;;;2.00;1.60;;;;;;;;;;5037688;28;20028;-76
2022/09/16 13:20:48;;;;;;;4.63;2.38;;;;;;;;;;5028655;28;20034;-77
2022/09/16 13:23:22;;;;;;;2.42;1.83;;;;;;;;;;5013140;28;20110;-76
2022/09/16 13:25:56;;;;;;;2.55;1.85;;;;;;;;;;5010907;28;20039;-77
2022/09/16 13:28:24;;;;;;;3.42;1.92;;;;;;;;;;5020488;28;20021;-77
2022/09/16 13:30:49;;;;;;;3.70;2.38;;;;;;;;;;5044838;28;20033;-79
2022/09/16 13:33:18;;;;;;;1.50;1.40;;;;;;;;;;5049677;28;20428;-77
2022/09/16 13:35:48;;;;;;;6.43;3.08;;;;;;;;;;5029558;28;20105;-78
2022/09/16 13:38:13;;;;;;;9.23;5.10;;;;;;;;;;5010207;28;20593;-77
2022/09/16 13:40:40;;;;;;;2.42;1.52;;;;;;;;;;5010427;28;20029;-79
2022/09/16 13:43:08;;;;;;;1.60;1.25;;;;;;;;;;4995979;28;20446;-77
2022/09/16 13:45:40;;;;;;;4.55;1.42;;;;;;;;;;5014207;28;20100;-77
2022/09/16 13:48:11;;;;;;;;;;;;;;;;;;4997308;28;20113;-78
2022/09/16 13:50:42;;;;;;;3.92;1.88;;;;;;;;;;5014333;28;19963;-85
2022/09/16 13:53:29;;;;;;;5.10;2.67;;;;;;;;;;4997879;28;20117;-85
2022/09/16 13:56:03;;;;;;;4.20;1.92;;;;;;;;;;5016021;28;20342;-82
2022/09/16 13:58:36;;;;;;;4.38;1.60;;;;;;;;;;5019660;28;20147;-86
2022/09/16 14:01:14;;;;;;;4.45;2.15;;;;;;;;;;5019848;28;20615;-83
2022/09/16 14:03:47;;;;;;;2.53;1.48;;;;;;;;;;5013563;28;20065;-81
2022/09/16 14:06:46;;;;;;;9.57;5.95;;;;;;;;;;5020773;28;20030;-83
2022/09/16 14:09:25;;;;;;;5.70;2.65;;;;;;;;;;5018512;28;20026;-83
2022/09/16 14:12:06;;;;;;;3.40;2.20;;;;;;;;;;5014476;28;20026;-82
2022/09/16 14:14:35;;;;;;;2.95;1.60;;;;;;;;;;5014209;28;20026;-85
2022/09/16 14:17:13;;;;;;;8.38;3.85;;;;;;;;;;5014301;28;20038;-84
2022/09/16 14:19:41;;;;;;;4.03;1.90;;;;;;;;;;4997889;28;20152;-86
2022/09/16 14:22:09;;;;;;;4.25;2.35;;;;;;;;;;5015259;28;20034;-86
2022/09/16 14:24:38;;;;;;;7.43;2.17;;;;;;;;;;5022769;28;20108;-85
2022/09/16 14:27:05;;;;;;;6.72;3.00;;;;;;;;;;5038995;28;20434;-87
2022/09/16 14:29:31;;;;;;;1.83;1.50;;;;;;;;;;5037640;28;20108;-81
2022/09/16 14:31:57;;;;;;;4.35;2.00;;;;;;;;;;5038146;28;20747;-84
2022/09/16 14:34:35;;;;;;;8.80;4.40;;;;;;;;;;5035245;28;20060;-83
2022/09/16 14:37:04;;;;;;;4.18;1.70;;;;;;;;;;5034318;28;20086;-86
2022/09/16 14:39:31;;;;;;;5.38;1.88;;;;;;;;;;5032951;28;20693;-85
2022/09/16 14:42:02;;;;;;;4.28;1.50;;;;;;;;;;5033585;28;20075;-83
2022/09/16 14:44:41;;;;;;;6.90;2.17;;;;;;;;;;5016864;28;20041;-85
2022/09/16 14:47:24;;;;;;;2.00;1.42;;;;;;;;;;5033831;28;20366;-86
2022/09/16 14:49:59;;;;;;;1.58;1.45;;;;;;;;;;5035289;28;20450;-84
2022/09/16 14:52:27;;;;;;;3.15;1.60;;;;;;;;;;5033275;28;20052;-83
2022/09/16 14:54:56;;;;;;;5.60;2.25;;;;;;;;;;5017139;28;20040;-83
2022/09/16 14:57:24;;;;;;;3.53;1.88;;;;;;;;;;5032157;28;20440;-84
2022/09/16 14:59:54;;;;;;;5.03;2.08;;;;;;;;;;5016733;28;20040;-85
2022/09/16 15:02:32;;;;;;;3.08;2.45;;;;;;;;;;5035391;28;20120;-84
2022/09/16 15:05:19;;;;;;;5.75;1.90;;;;;;;;;;5035535;28;20378;-86
2022/09/16 15:07:45;;;;;;;5.22;1.40;;;;;;;;;;5034813;28;20025;-82
2022/09/16 15:10:28;;;;;;;6.88;2.22;;;;;;;;;;5036850;28;20133;-82
2022/09/16 15:12:58;;;;;;;3.80;1.83;;;;;;;;;;5035399;28;20033;-81
2022/09/16 15:15:33;;;;;;;9.60;1.30;;;;;;;;;;5018965;28;20795;-83
2022/09/16 15:18:06;;;;;;;3.88;1.45;;;;;;;;;;5032323;28;20021;-84
2022/09/16 15:20:36;;;;;;;0.98;0.90;;;;;;;;;;5032372;28;20044;-83
2022/09/16 15:23:02;;;;;;;1.55;0.80;;;;;;;;;;5032006;28;20029;-85